Data for 04/01/2010

Time Sea-Level Adjusted Pressure Absolute Pressure Temperature Relative Humidity Dew Point   
(mb) (inHg) (mb) (inHg) (C) (F) (%) (C) (F)
00:05 1008 29.77 838 24.75 -1 30.2 75 -4.9 23.1
00:10 1008 29.77 838 24.75 -1 30.2 75 -5 23.1
00:15 1008 29.77 838 24.75 -1.1 30.1 75 -5 23.1
00:20 1008 29.77 838 24.75 -1 30.1 75 -5 23
00:25 1008 29.77 838 24.75 -1 30.1 74 -5.1 22.9
00:30 1009 29.8 838 24.75 -1 30.1 74 -5.1 22.8
00:35 1009 29.8 838 24.75 -0.9 30.3 72 -5.3 22.4
00:40 1009 29.8 838 24.75 -0.5 31.2 69 -5.5 22.1
00:45 1009 29.8 838 24.75 -0.3 31.5 69 -5.3 22.4
00:50 1009 29.8 838 24.75 -0.2 31.6 70 -5 23
00:55 1009 29.8 838 24.75 -0.2 31.7 69 -5.2 22.7
01:00 1009 29.8 838 24.75 -0.2 31.7 70 -4.9 23.1
01:05 1009 29.8 838 24.75 -0.4 31.3 70 -5.1 22.7
01:10 1009 29.8 838 24.75 -0.5 31.1 73 -4.8 23.4
01:15 1009 29.8 838 24.75 -0.7 30.7 74 -4.7 23.5
01:20 1008 29.77 838 24.75 -0.7 30.8 70 -5.4 22.2
01:25 1009 29.8 838 24.75 -0.4 31.3 72 -4.9 23.2
01:30 1009 29.8 838 24.75 -0.4 31.3 74 -4.5 23.9
01:35 1009 29.8 838 24.75 -0.7 30.8 74 -4.7 23.6
01:40 1009 29.8 838 24.75 -0.9 30.3 76 -4.6 23.7
01:45 1009 29.8 838 24.75 -1.1 30.1 77 -4.6 23.7
01:50 1009 29.8 838 24.75 -1.1 29.9 78 -4.4 24
01:55 1009 29.8 838 24.75 -1.2 29.8 80 -4.3 24.2
02:00 1009 29.8 838 24.75 -1.3 29.6 81 -4.2 24.4
02:05 1009 29.8 838 24.75 -1.4 29.4 82 -4.2 24.5
02:10 1009 29.8 838 24.75 -1.5 29.3 83 -4.1 24.7
02:15 1009 29.8 838 24.75 -1.5 29.2 83 -4 24.8
02:20 1008 29.77 838 24.75 -1.6 29.1 84 -3.9 24.9
02:25 1008 29.77 838 24.75 -1.6 29 85 -3.9 25
02:30 1008 29.77 838 24.75 -1.6 29 85 -3.9 25
02:35 1008 29.77 838 24.75 -1.7 29 85 -3.8 25.1
02:40 1008 29.77 838 24.75 -1.7 28.9 85 -3.9 25
02:45 1008 29.77 837 24.72 -1.7 29 85 -3.9 25
02:50 1008 29.77 837 24.72 -1.7 28.9 85 -3.9 25
02:55 1008 29.77 837 24.72 -1.8 28.8 85 -3.9 25
03:00 1008 29.77 837 24.72 -1.8 28.8 85 -4 24.8
03:05 1008 29.77 837 24.72 -1.7 28.9 84 -4.1 24.6
03:10 1008 29.77 837 24.72 -1.6 29.1 83 -4.1 24.6
03:15 1008 29.77 837 24.72 -1.5 29.4 82 -4.1 24.5
03:20 1008 29.77 837 24.72 -1.4 29.6 82 -4 24.7
03:25 1008 29.77 837 24.72 -1.3 29.7 83 -3.8 25.2
03:30 1008 29.77 837 24.72 -1.2 29.8 84 -3.7 25.4
03:35 1008 29.77 837 24.72 -1.4 29.5 85 -3.6 25.5
03:40 1008 29.77 837 24.72 -1.7 29 87 -3.6 25.6
03:45 1008 29.77 837 24.72 -1.6 29.2 87 -3.5 25.7
03:50 1007 29.74 837 24.72 -1.3 29.7 84 -3.7 25.4
03:55 1007 29.74 837 24.72 -1.3 29.6 84 -3.7 25.4
04:00 1007 29.74 837 24.72 -1.4 29.5 84 -3.8 25.2
04:05 1007 29.74 837 24.72 -1.7 29 85 -3.8 25.2
04:10 1007 29.74 837 24.72 -1.8 28.8 86 -3.8 25.1
04:15 1007 29.74 837 24.72 -1.7 28.9 85 -3.9 25
04:20 1007 29.74 836 24.69 -1.6 29.1 84 -3.9 24.9
04:25 1007 29.74 837 24.72 -1.7 29 85 -3.9 25
04:30 1007 29.74 837 24.72 -1.8 28.7 86 -3.8 25.1
04:35 1007 29.74 837 24.72 -2 28.4 87 -3.9 25
04:40 1007 29.74 837 24.72 -2 28.4 86 -4 24.7
04:45 1007 29.74 837 24.72 -2 28.5 84 -4.4 24.1
04:50 1008 29.77 837 24.72 -1.9 28.6 83 -4.5 24
04:55 1008 29.77 837 24.72 -1.9 28.6 82 -4.5 23.9
05:00 1008 29.77 837 24.72 -1.8 28.7 82 -4.5 23.8
05:05 1008 29.77 837 24.72 -1.6 29.1 80 -4.7 23.6
05:10 1008 29.77 837 24.72 -1.5 29.2 81 -4.5 24
05:15 1008 29.77 837 24.72 -1.5 29.3 80 -4.5 24
05:20 1008 29.77 837 24.72 -1.5 29.3 80 -4.4 24
05:25 1008 29.77 837 24.72 -1.5 29.3 81 -4.4 24
05:30 1008 29.77 837 24.72 -1.6 29.2 81 -4.5 23.9
05:35 1008 29.77 837 24.72 -1.5 29.3 81 -4.4 24
05:40 1008 29.77 837 24.72 -1.5 29.4 80 -4.4 24
05:45 1008 29.77 837 24.72 -1.4 29.5 79 -4.6 23.8
05:50 1008 29.77 837 24.72 -1.3 29.6 80 -4.4 24.1
05:55 1008 29.77 837 24.72 -1.3 29.6 79 -4.5 23.9
06:00 1008 29.77 837 24.72 -1.5 29.2 81 -4.4 24
06:05 1008 29.77 838 24.75 -1.6 29.2 83 -4.2 24.5
06:10 1008 29.77 838 24.75 -1.6 29.2 84 -4 24.9
06:15 1008 29.77 838 24.75 -1.7 29 86 -3.8 25.2
06:20 1008 29.77 838 24.75 -2 28.4 88 -3.7 25.3
06:25 1008 29.77 838 24.75 -2.1 28.2 90 -3.6 25.6
06:30 1008 29.77 838 24.75 -2.1 28.3 90 -3.5 25.8
06:35 1008 29.77 838 24.75 -2.1 28.2 91 -3.4 25.9
06:40 1008 29.77 838 24.75 -2 28.4 89 -3.5 25.7
06:45 1008 29.77 838 24.75 -2.2 28 91 -3.5 25.7
06:50 1008 29.77 838 24.75 -2.4 27.7 91 -3.6 25.4
06:55 1008 29.77 838 24.75 -2.6 27.3 93 -3.7 25.4
07:00 1009 29.8 838 24.75 -2.7 27.2 92 -3.8 25.2
07:05 1009 29.8 838 24.75 -2.6 27.3 92 -3.8 25.2
07:10 1009 29.8 838 24.75 -2.5 27.4 92 -3.7 25.4
07:15 1009 29.8 838 24.75 -2.4 27.6 92 -3.6 25.5
07:20 1009 29.8 838 24.75 -2.5 27.5 93 -3.5 25.7
07:25 1009 29.8 838 24.75 -2.6 27.4 93 -3.5 25.6
07:30 1009 29.8 838 24.75 -2.6 27.4 94 -3.4 25.8
07:35 1009 29.8 838 24.75 -2.4 27.7 93 -3.3 26
07:40 1009 29.8 838 24.75 -2.1 28.1 91 -3.4 25.9
07:45 1009 29.8 838 24.75 -2.2 28 91 -3.5 25.7
07:50 1009 29.8 838 24.75 -2.1 28.2 90 -3.5 25.7
07:55 1009 29.8 838 24.75 -2 28.3 90 -3.4 25.8
08:00 1009 29.8 838 24.75 -2 28.5 89 -3.6 25.6
08:05 1009 29.8 838 24.75 -1.9 28.7 89 -3.5 25.7
08:10 1009 29.8 838 24.75 -1.7 29 88 -3.4 25.8
08:15 1009 29.8 838 24.75 -1.7 28.9 88 -3.4 25.9
08:20 1009 29.8 838 24.75 -1.3 29.6 87 -3.2 26.2
08:25 1009 29.8 838 24.75 -1.5 29.3 88 -3.2 26.2
08:30 1009 29.8 838 24.75 -1.5 29.2 89 -3.1 26.4
08:35 1009 29.8 838 24.75 -1.5 29.4 89 -3 26.6
08:40 1009 29.8 838 24.75 -1.4 29.6 89 -2.9 26.8
08:45 1009 29.8 838 24.75 -1.3 29.6 89 -2.9 26.9
08:50 1009 29.8 838 24.75 -1.3 29.6 89 -2.8 26.9
08:55 1009 29.8 838 24.75 -1.2 29.8 89 -2.8 27
09:00 1009 29.8 838 24.75 -1.2 29.8 89 -2.9 26.8
09:05 1009 29.8 838 24.75 -1.2 29.9 87 -3 26.6
09:10 1009 29.8 838 24.75 -1.2 29.8 88 -3 26.6
09:15 1009 29.8 838 24.75 -1.2 29.8 88 -3 26.6
09:20 1009 29.8 838 24.75 -1.2 29.8 87 -3.1 26.5
09:25 1009 29.8 838 24.75 -1.2 29.8 88 -3 26.5
09:30 1009 29.8 838 24.75 -1.1 30 87 -3 26.6
09:35 1009 29.8 838 24.75 -1.1 29.9 87 -3 26.6
09:40 1008 29.77 838 24.75 -1.2 29.8 85 -3.4 25.8
09:45 1008 29.77 838 24.75 -1.3 29.7 86 -3.3 26
09:50 1008 29.77 838 24.75 -1.2 29.8 86 -3.2 26.2
09:55 1008 29.77 838 24.75 -1.1 30.1 86 -3.2 26.3
10:00 1008 29.77 838 24.75 -0.9 30.5 85 -3.1 26.5
10:05 1008 29.77 838 24.75 -0.8 30.5 86 -2.9 26.7
10:10 1009 29.8 838 24.75 -0.9 30.4 84 -3.3 26.1
10:15 1009 29.8 838 24.75 -1 30.2 85 -3.2 26.2
10:20 1009 29.8 838 24.75 -1.2 29.8 87 -3.1 26.3
10:25 1008 29.77 838 24.75 -1.2 29.8 86 -3.3 26.1
10:30 1009 29.8 838 24.75 -1.2 29.9 85 -3.5 25.8
10:35 1009 29.8 838 24.75 -1.1 29.9 83 -3.7 25.4
10:40 1009 29.8 838 24.75 -1.6 29.2 86 -3.6 25.6
10:45 1009 29.8 838 24.75 -1.6 29.1 87 -3.5 25.6
10:50 1009 29.8 838 24.75 -1.6 29.2 86 -3.6 25.5
10:55 1009 29.8 838 24.75 -1.5 29.2 86 -3.6 25.5
11:00 1009 29.8 838 24.75 -1.5 29.4 87 -3.4 25.9
11:05 1009 29.8 838 24.75 -1.3 29.7 85 -3.5 25.7
11:10 1009 29.8 838 24.75 -1.3 29.6 84 -3.6 25.5
11:15 1009 29.8 838 24.75 -1.7 29 87 -3.6 25.5
11:20 1009 29.8 838 24.75 -1.8 28.8 89 -3.4 25.9
11:25 1009 29.8 838 24.75 -1.7 29 90 -3.2 26.3
11:30 1009 29.8 838 24.75 -1.8 28.7 91 -3.1 26.3
11:35 1009 29.8 838 24.75 -1.8 28.8 92 -3 26.7
11:40 1009 29.8 838 24.75 -1.7 28.9 91 -2.9 26.7
11:45 1009 29.8 838 24.75 -1.8 28.7 93 -2.9 26.8
11:50 1009 29.8 838 24.75 -1.8 28.8 93 -2.7 27.1
11:55 1008 29.77 838 24.75 -1.6 29.1 92 -2.7 27.2
12:00 1008 29.77 838 24.75 -1.4 29.4 93 -2.5 27.5
12:05 1008 29.77 838 24.75 -0.9 30.3 92 -2 28.3
12:10 1008 29.77 838 24.75 -0.2 31.6 86 -2.3 27.8
12:15 1008 29.77 838 24.75 0.1 32.1 83 -2.5 27.5
12:20 1008 29.77 838 24.75 -0.2 31.7 83 -2.7 27.1
12:25 1008 29.77 838 24.75 -0.3 31.4 82 -3 26.6
12:30 1008 29.77 838 24.75 -0.4 31.3 85 -2.6 27.3
12:35 1008 29.77 838 24.75 -0.6 30.9 84 -3 26.6
12:40 1008 29.77 838 24.75 -0.7 30.7 84 -3.1 26.5
12:45 1008 29.77 838 24.75 -0.6 30.9 84 -3 26.7
12:50 1008 29.77 838 24.75 -0.7 30.8 82 -3.4 26
12:55 1008 29.77 837 24.72 -0.7 30.7 77 -4.3 24.2
13:00 1008 29.77 837 24.72 -0.6 31 74 -4.6 23.7
13:05 1008 29.77 838 24.75 -0.6 31 78 -3.9 25
13:10 1008 29.77 838 24.75 -0.7 30.7 79 -4 24.8
13:15 1008 29.77 838 24.75 -0.4 31.3 78 -3.8 25.1
13:20 1008 29.77 838 24.75 -0.7 30.7 74 -4.7 23.5
13:25 1008 29.77 838 24.75 -0.8 30.5 75 -4.8 23.4
13:30 1008 29.77 838 24.75 -0.4 31.2 73 -4.7 23.5
13:35 1008 29.77 838 24.75 -0.3 31.5 74 -4.4 24.2
13:40 1008 29.77 838 24.75 -0.1 31.9 72 -4.6 23.7
13:45 1008 29.77 838 24.75 -0.4 31.2 79 -3.6 25.5
13:50 1008 29.77 838 24.75 -0.8 30.5 81 -3.7 25.3
13:55 1008 29.77 838 24.75 -1 30.3 81 -3.8 25.2
14:00 1008 29.77 838 24.75 -1.1 29.9 83 -3.6 25.5
14:05 1008 29.77 838 24.75 -1 30.1 81 -3.8 25.1
14:10 1008 29.77 838 24.75 -1.1 30 83 -3.7 25.4
14:15 1008 29.77 838 24.75 -1 30.3 81 -3.8 25.2
14:20 1008 29.77 838 24.75 -0.9 30.4 80 -3.8 25.1
14:25 1008 29.77 838 24.75 -0.9 30.5 81 -3.7 25.4
14:30 1008 29.77 838 24.75 -0.6 31 81 -3.4 25.8
14:35 1008 29.77 838 24.75 -0.5 31.1 78 -3.8 25.2
14:40 1008 29.77 838 24.75 -0.5 31 79 -3.8 25.2
14:45 1008 29.77 838 24.75 -0.4 31.2 77 -4 24.8
14:50 1008 29.77 838 24.75 -0.5 31.2 76 -4.1 24.6
14:55 1008 29.77 838 24.75 -0.4 31.2 78 -3.8 25.1
15:00 1008 29.77 838 24.75 -0.5 31 80 -3.6 25.6
15:05 1008 29.77 838 24.75 -0.3 31.5 77 -3.8 25.2
15:10 1008 29.77 838 24.75 -0.4 31.3 78 -3.8 25.2
15:15 1008 29.77 838 24.75 0 32 78 -3.4 25.9
15:20 1008 29.77 838 24.75 -0.1 31.9 76 -3.8 25.2
15:25 1008 29.77 838 24.75 0.1 32.1 75 -3.9 24.9
15:30 1008 29.77 838 24.75 0.2 32.4 73 -4.1 24.6
15:35 1008 29.77 838 24.75 0.7 33.2 70 -4.1 24.6
15:40 1008 29.77 838 24.75 0.6 33.2 70 -4.1 24.6
15:45 1008 29.77 838 24.75 0.5 32.8 73 -3.9 25
15:50 1008 29.77 838 24.75 0.4 32.7 72 -4 24.8
15:55 1008 29.77 838 24.75 0.6 33.1 70 -4.2 24.5
16:00 1008 29.77 838 24.75 0.7 33.2 68 -4.6 23.7
16:05 1008 29.77 838 24.75 1 33.8 67 -4.5 23.8
16:10 1008 29.77 838 24.75 1.2 34.1 66 -4.5 23.8
16:15 1008 29.77 838 24.75 1 33.9 63 -5.1 22.8
16:20 1008 29.77 838 24.75 1 33.9 62 -5.4 22.4
16:25 1008 29.77 838 24.75 1.5 34.7 63 -4.8 23.3
16:30 1009 29.8 838 24.75 1.2 34.2 64 -4.8 23.4
16:35 1009 29.8 838 24.75 1.5 34.6 59 -5.6 21.9
16:40 1009 29.8 838 24.75 1.5 34.7 61 -5.1 22.8
16:45 1009 29.8 838 24.75 1.5 34.6 61 -5.3 22.4
16:50 1009 29.8 838 24.75 1.1 34 60 -5.7 21.7
16:55 1009 29.8 838 24.75 1 33.8 60 -5.9 21.3
17:00 1009 29.8 838 24.75 1.3 34.4 59 -5.8 21.6
17:05 1009 29.8 838 24.75 1.6 34.8 59 -5.6 22
17:10 1009 29.8 838 24.75 1.6 34.8 60 -5.5 22.2
17:15 1009 29.8 838 24.75 1.2 34.1 62 -5.4 22.4
17:20 1009 29.8 838 24.75 1.3 34.3 59 -5.8 21.5
17:25 1009 29.8 838 24.75 1.3 34.3 59 -5.8 21.6
17:30 1009 29.8 838 24.75 1.2 34.1 61 -5.5 22.1
17:35 1009 29.8 838 24.75 1 33.8 60 -5.8 21.5
17:40 1009 29.8 838 24.75 1.2 34.2 62 -5.2 22.6
17:45 1009 29.8 838 24.75 1.1 34 68 -4.2 24.5
17:50 1009 29.8 838 24.75 0.6 33 70 -4.2 24.4
17:55 1009 29.8 839 24.78 0.4 32.8 75 -3.4 25.9
18:00 1010 29.83 839 24.78 -0.2 31.7 86 -2.3 27.8
18:05 1010 29.83 839 24.78 -0.6 30.8 89 -2.2 28
18:10 1010 29.83 839 24.78 -1 30.3 90 -2.4 27.7
18:15 1009 29.8 839 24.78 -1.1 29.9 92 -2.4 27.8
18:20 1009 29.8 839 24.78 -1.3 29.7 91 -2.5 27.5
18:25 1009 29.8 839 24.78 -1.2 29.9 90 -2.6 27.4
18:30 1009 29.8 839 24.78 -1.2 29.9 89 -2.7 27.2
18:35 1009 29.8 839 24.78 -1.2 29.9 88 -2.9 26.8
18:40 1009 29.8 839 24.78 -1.1 30 87 -3 26.7
18:45 1010 29.83 839 24.78 -0.8 30.5 85 -3 26.6
18:50 1010 29.83 839 24.78 -0.8 30.6 85 -3 26.7
18:55 1010 29.83 839 24.78 -0.8 30.6 84 -3.1 26.4
19:00 1010 29.83 839 24.78 -0.9 30.4 85 -3.1 26.4
19:05 1010 29.83 839 24.78 -0.9 30.3 85 -3.1 26.4
19:10 1010 29.83 839 24.78 -1.2 29.9 87 -3 26.5
19:15 1010 29.83 839 24.78 -1.2 29.8 87 -3.1 26.5
19:20 1010 29.83 839 24.78 -1.1 29.9 86 -3.2 26.2
19:25 1010 29.83 839 24.78 -1.2 29.9 86 -3.2 26.3
19:30 1010 29.83 839 24.78 -1.2 29.8 85 -3.4 25.9
19:35 1010 29.83 839 24.78 -1.1 30 83 -3.6 25.6
19:40 1010 29.83 839 24.78 -1 30.2 81 -3.8 25.1
19:45 1010 29.83 839 24.78 -0.9 30.4 79 -4 24.8
19:50 1010 29.83 839 24.78 -0.7 30.7 77 -4.3 24.2
19:55 1010 29.83 839 24.78 -0.6 30.8 76 -4.4 24.1
20:00 1010 29.83 839 24.78 -0.6 31 75 -4.5 24
20:05 1010 29.83 839 24.78 -0.5 31.1 74 -4.7 23.6
20:10 1010 29.83 839 24.78 -0.4 31.3 69 -5.3 22.4
20:15 1010 29.83 839 24.78 -0.2 31.6 69 -5.2 22.6
20:20 1010 29.83 839 24.78 -0 32 66 -5.7 21.8
20:25 1010 29.83 839 24.78 0.1 32.2 68 -5.2 22.6
20:30 1010 29.83 839 24.78 -0 31.9 67 -5.4 22.2
20:35 1010 29.83 839 24.78 -0.1 31.9 68 -5.4 22.4
20:40 1010 29.83 839 24.78 0.1 32.1 65 -5.7 21.7
20:45 1010 29.83 839 24.78 0.1 32.2 66 -5.5 22.1
20:50 1010 29.83 839 24.78 -0 31.9 67 -5.5 22
20:55 1010 29.83 840 24.81 -0.1 31.7 67 -5.5 22
21:00 1010 29.83 840 24.81 -0.2 31.7 67 -5.6 21.9
21:05 1010 29.83 840 24.81 -0.1 31.9 68 -5.2 22.6
21:10 1010 29.83 840 24.81 -0.4 31.2 70 -5.2 22.6
21:15 1010 29.83 840 24.81 -0.7 30.8 70 -5.5 22.1
21:20 1011 29.85 840 24.81 -0.7 30.8 68 -5.8 21.5
21:25 1011 29.85 840 24.81 -0.7 30.7 71 -5.4 22.3
21:30 1011 29.85 840 24.81 -0.8 30.5 75 -4.7 23.5
21:35 1011 29.85 840 24.81 -0.9 30.4 75 -4.8 23.4
21:40 1011 29.85 840 24.81 -0.7 30.7 75 -4.7 23.6
21:45 1011 29.85 840 24.81 -0.8 30.6 71 -5.4 22.3
21:50 1011 29.85 840 24.81 -0.8 30.6 72 -5.2 22.6
21:55 1011 29.85 840 24.81 -1 30.3 72 -5.4 22.2
22:00 1011 29.85 840 24.81 -1.4 29.4 73 -5.7 21.8
22:05 1011 29.85 840 24.81 -1.7 29 75 -5.5 22.1
22:10 1011 29.85 840 24.81 -1.7 29 74 -5.8 21.6
22:15 1011 29.85 840 24.81 -1.6 29.2 74 -5.6 21.9
22:20 1011 29.85 840 24.81 -1.7 28.9 77 -5.3 22.5
22:25 1011 29.85 840 24.81 -2 28.3 77 -5.6 22
22:30 1011 29.85 840 24.81 -2.2 28.1 76 -5.8 21.6
22:35 1011 29.85 840 24.81 -2.1 28.2 77 -5.7 21.8
22:40 1011 29.85 840 24.81 -2.2 28 77 -5.7 21.7
22:45 1011 29.85 840 24.81 -2.4 27.8 79 -5.6 22
22:50 1011 29.85 840 24.81 -2.5 27.5 80 -5.5 22
22:55 1011 29.85 840 24.81 -2.6 27.4 79 -5.7 21.8
23:00 1011 29.85 840 24.81 -2.6 27.3 79 -5.8 21.6
23:05 1011 29.85 840 24.81 -2.6 27.2 77 -6.1 21.1
23:10 1011 29.85 840 24.81 -2.6 27.2 78 -6 21.2
23:15 1011 29.85 840 24.81 -2.7 27.1 79 -5.8 21.5
23:20 1011 29.85 840 24.81 -2.9 26.9 81 -5.6 21.9
23:25 1011 29.85 840 24.81 -3 26.5 83 -5.5 22.1
23:30 1011 29.85 840 24.81 -3.2 26.2 81 -6 21.3
23:35 1011 29.85 840 24.81 -3.5 25.8 81 -6.3 20.7
23:40 1011 29.85 840 24.81 -3.5 25.8 79 -6.5 20.2
23:45 1011 29.85 840 24.81 -3.4 25.9 78 -6.7 19.9
23:50 1011 29.85 840 24.81 -3.4 25.9 78 -6.7 19.9
23:55 1011 29.85 840 24.81 -3.4 25.9 78 -6.7 20
24:00 1011 29.85 840 24.81 -3.4 25.9 79 -6.5 20.3